KJCT - Junction/Kimble Cnty, TX, US

Issued at 2320 UTC 31 Oct 2020
Updated at 0111 UTC 01 Nov 2020
Potential Impact None Slight Moderate High
Time0051Z 01/02Z 01/03Z 01/04Z 01/05Z 01/06Z 01/07Z 01/08Z 01/09Z 01/10Z 01/11Z 01/12Z 01/13Z 01/14Z>>
Type OBS PRVL PRVL PRVL PRVL PRVL PRVL PRVL PRVL PRVL PRVL PRVL PRVL PRVL
VIS 10 >6 >6 >6 >6 >6 >6 >6 >6 >6 >6 >6 >6 >6
CIG -- -- -- -- -- -- -- -- -- -- -- -- -- --
Cover CLR FEW FEW FEW FEW FEW FEW FEW FEW FEW FEW FEW FEW SCT
FltCat VFR VFR VFR VFR VFR VFR VFR VFR VFR VFR VFR VFR VFR VFR
WX -- -- -- -- -- -- -- -- -- -- -- -- -- --
WDir VRB 200 200 200 200 200 200 200 200 200 200 200 200 40
WSpd 0 5 5 5 5 5 5 5 5 5 5 5 5 12
WGst -- -- -- -- -- -- -- -- -- -- -- -- -- 19
Raw TAF
KJCT 312320Z 0100/0124 20005KT P6SM FEW250
  FM011400 04012G19KT P6SM SCT250


Raw METAR
KJCT 010051Z AUTO 00000KT 10SM CLR 18/07 A3013 RMK AO2 SLP186 T01830072
KJCT 312351Z AUTO 22004KT 10SM CLR 23/07 A3010 RMK AO2 SLP174 T02280067 10261 20217 53003
KJCT 312251Z AUTO 21008KT 10SM CLR 26/06 A3009 RMK AO2 SLP167 T02560061

METAR Board
Radar Display
Forecast Discussion
For situational awareness. Not to be used for flight planning purposes.